Terminal Aerodrome Forecast
Issued by NWS Shreveport, LA

Home | Current Version | Previous Version | Text Only | Print | Product List | Glossary On
Versions: 1 2 3 4 5 6 7 8 9 10 11 12 13 14 15
000
FTUS44 KSHV 031411 AAA
TAFTXK
TAF AMD
KTXK 031411Z 0314/0412 22012KT P6SM VCSH SCT030 BKN080 OVC250
      TEMPO 0316/0319 VRB15G30KT 2SM TSRA BR BKN030CB
     FM031900 22010G16KT P6SM VCTS BKN040CB OVC080
      TEMPO 0319/0322 VRB15G30KT 2SM TSRA BR BKN030CB
     FM040200 21007KT P6SM BKN050
     FM041000 22005KT P6SM VCTS BKN045CB=

USA.gov is the U.S. government's official web portal to all federal, state and local government web resources and services.